Terminal Aerodrome Forecast
Issued by NWS Denver/Boulder, CO

Home | Current Version | Previous Version | Text Only | Print | Product List | Glossary On
Versions: 1 2 3 4 5 6 7 8 9 10 11 12 13 14 15 16 17 18 19 20 21 22 23 24 25 26 27 28 29 30 31 32 33 34 35 36 37 38 39 40 41 42 43 44 45 46 47 48 49 50
000
FTUS45 KBOU 020254 AAB
TAFDEN
TAF AMD
KDEN 020254Z 0203/0306 18015KT P6SM SCT100 SCT150 BKN220
      TEMPO 0203/0205 18015G25KT
     FM020600 20010KT P6SM FEW150 SCT220
     FM021400 31007KT P6SM FEW100 SCT150
     FM021800 07006KT P6SM FEW080 SCT220
     FM022100 07008KT P6SM VCTS SCT080CB BKN120
     FM030100 16012KT P6SM SCT080 BKN120=

USA.gov is the U.S. government's official web portal to all federal, state and local government web resources and services.